METAR stanice u blizini

 

LYBE - Beograd / Surčin, Srbija
Ažurirano: 22/05/2018 15:30
Few Clouds
Few Clouds
 Pravac vetra IJI
Vetar: IJI 20 km/h
Temperatura: 25°C
Tačka rose: 16°C
Vlažnost: 57%
Pritisak: 1015 hPa
Oblaci: Few Clouds
Vidljivost: 10 km
Cloud details: Few Clouds 1219 m
2018/05/22 13:30 LYBE 221330Z 12011KT 9999 FEW040 25/16 Q1015 NOSIG
LYBT - Beograd / Batajnica, Srbija
Ažurirano: 22/05/2018 15:30
Vedro
Vedro
 Pravac vetra ISI
Vetar: ISI 22 km/h
Temperatura: 25°C
Tačka rose: 16°C
Vlažnost: 57%
Pritisak: 1015 hPa
Pregled: Vedro
Vidljivost: greater than 10 km
2018/05/22 13:30 LYBT 221330Z 07012KT 040V110 CAVOK 25/16 Q1015 NOSIG
LYVR - Vršac, Srbija
Ažurirano: 22/05/2018 15:30
Few Clouds
Few Clouds
 Pravac vetra JI
Vetar: JI 30 km/h, Maks.: 59 km/h
Temperatura: 24°C
Tačka rose: 12°C
Vlažnost: 47%
Pritisak: 1016 hPa
Oblaci: Few Clouds
Vidljivost: 10 km
Cloud details: Few Clouds 914 m
2018/05/22 13:30 LYVR 221330Z 14016G32KT 9999 FEW030 24/12 Q1016 NOSIG
 
LYKV - Lađevci, Srbija
Ažurirano: 22/05/2018 15:30
Partly Cloudy
Partly Cloudy
 Pravac vetra J
Vetar: J 15 km/h
Temperatura: 23°C
Tačka rose: 16°C
Vlažnost: 65%
Pritisak: 1016 hPa
Oblaci: Partly Cloudy
Vidljivost: 10 km
Cloud details: Few Clouds 914 m
Partly Cloudy 1006 m
2018/05/22 13:30 LYKV 221330Z 17008KT 9999 FEW030TCU SCT033 23/16 Q1016 TEMPO VRB10G25KT 4000 TSRA SCT030CB SCT035
LYNI - Niš, Srbija
Ažurirano: 22/05/2018 15:30
Partly Cloudy
Partly Cloudy
 Pravac vetra ISI
Vetar: ISI 19 km/h
Temperatura: 23°C
Tačka rose: 16°C
Vlažnost: 65%
Pritisak: 1016 hPa
Oblaci: Partly Cloudy
Vidljivost: 10 km
Cloud details: Partly Cloudy 1219 m
2018/05/22 13:30 LYNI 221330Z 06010KT 9999 SCT040 23/16 Q1016 NOSIG
BKPR - Priština, Srbija
Ažurirano: 22/05/2018 16:00
Thunderstorm, Pretežno oblačno
Thunderstorm, Pretežno oblačno
 Pravac vetra JJI
Vetar: JJI 17 km/h
Temperatura: 23°C
Tačka rose: 14°C
Vlažnost: 57%
Pritisak: 1017 hPa
Pregled: Thunderstorm
Oblaci: Mostly Cloudy
Vidljivost: 10 km
Cloud details: Partly Cloudy 914 m
Mostly Cloudy 1219 m
2018/05/22 14:00 BKPR 221400Z 16009KT 9999 TS SCT030CB BKN040 23/14 Q1017 TEMPO 3000 SHRA
 
LHPP - Pecs / Pogany, Hungary
Ažurirano: 22/05/2018 15:15
Mostly Cloudy
Mostly Cloudy
 Pravac vetra JJI
Vetar: JJI 11 km/h
Temperatura: 25°C
Tačka rose: 13°C
Vlažnost: 47%
Pritisak: 1016 hPa
Oblaci: Mostly Cloudy
Vidljivost: 10 km
Cloud details: Partly Cloudy 1402 m
Mostly Cloudy 6096 m
2018/05/22 13:15 LHPP 221315Z 15006KT 9999 SCT046TCU BKN200 25/13 Q1016
LHUD - Szeged, Hungary
Ažurirano: 22/05/2018 15:15
Partly Cloudy
Partly Cloudy
 Pravac vetra JI
Vetar: JI 19 km/h
Temperatura: 25°C
Tačka rose: 14°C
Vlažnost: 51%
Pritisak: 1017 hPa
Oblaci: Partly Cloudy
Vidljivost: 10 km
Cloud details: Partly Cloudy 1311 m
2018/05/22 13:15 LHUD 221315Z 13010KT 9999 SCT043 25/14 Q1017
LRTR - Timisoara, Romania
Ažurirano: 22/05/2018 15:30
Partly Cloudy
Partly Cloudy
 Pravac vetra J
Vetar: J 15 km/h
Temperatura: 25°C
Tačka rose: 13°C
Vlažnost: 47%
Pritisak: 1016 hPa
Oblaci: Partly Cloudy
Vidljivost: 10 km
Cloud details: Partly Cloudy 1463 m
2018/05/22 13:30 LRTR 221330Z 17008KT 130V190 9999 SCT048 25/13 Q1016
 
LRCV - Craiova, Romania
Ažurirano: 22/05/2018 15:30
Vedro
Vedro
 Pravac vetra I
Vetar: I 13 km/h
Temperatura: 23°C
Tačka rose: 10°C
Vlažnost: 44%
Pritisak: 1019 hPa
Pregled: Vedro
Vidljivost: greater than 10 km
2018/05/22 13:30 LRCV 221330Z 10007KT CAVOK 23/10 Q1019
LBSF - Sofia, Bulgaria
Ažurirano: 22/05/2018 15:30
Partly Cloudy
Partly Cloudy
 Pravac vetra IJI
Vetar: IJI 20 km/h
Temperatura: 24°C
Tačka rose: 11°C
Vlažnost: 44%
Pritisak: 1018 hPa
Oblaci: Partly Cloudy
Vidljivost: 10 km
Cloud details: Partly Cloudy 1524 m
2018/05/22 13:30 LBSF 221330Z 12011KT 9999 SCT050 24/11 Q1018 NOSIG
LWSK - Skoplje, Makedonija
Ažurirano: 22/05/2018 15:30
Light drizzle, Delimično oblačno
Light drizzle, Delimično oblačno
 Pravac vetra JJZ
Vetar: JJZ 6 km/h
Temperatura: 21°C
Tačka rose: 18°C
Vlažnost: 83%
Pritisak: 1017 hPa
Pregled: Light Drizzle
Oblaci: Partly Cloudy
Vidljivost: 10 km
Cloud details: Few Clouds 1219 m
Partly Cloudy 1524 m
2018/05/22 13:30 LWSK 221330Z 20003KT 9999 -DZ FEW040 SCT050 21/18 Q1017 NOSIG
 
LYPG - Podgorica, Crna Gora
Ažurirano: 22/05/2018 15:30
Few Clouds
Few Clouds
 Pravac vetra J
Vetar: J 6 km/h
Temperatura: 28°C
Heat Index: 27°C
Tačka rose: 13°C
Vlažnost: 40%
Pritisak: 1014 hPa
Oblaci: Few Clouds
Vidljivost: 10 km
Cloud details: Few Clouds 1219 m
2018/05/22 13:30 LYPG 221330Z 17003KT 9999 FEW040 28/13 Q1014 NOSIG
LQSA - Sarajevo, Bosna i Hercegovina
Ažurirano: 22/05/2018 15:30
Partly Cloudy
Partly Cloudy
 Pravac vetra J
Vetar: J 9 km/h
Temperatura: 23°C
Tačka rose: 13°C
Vlažnost: 53%
Pritisak: 1015 hPa
Oblaci: Partly Cloudy
Vidljivost: 10 km
Cloud details: Partly Cloudy 1676 m
2018/05/22 13:30 LQSA 221330Z 17005KT 130V220 9999 SCT055 23/13 Q1015 NOSIG
LDOS - Osijek, Hrvatksa
Ažurirano: 22/05/2018 15:30
Few Clouds
Few Clouds
 Pravac vetra I
Vetar: I 9 km/h
Temperatura: 27°C
Heat Index: 27°C
Tačka rose: 14°C
Vlažnost: 45%
Pritisak: 1014 hPa
Oblaci: Few Clouds
Vidljivost: 10 km
Cloud details: Few Clouds 1433 m
2018/05/22 13:30 LDOS 221330Z 10005KT 060V160 9999 FEW047 27/14 Q1014